Time;durP1;ratioP1;P1;durP2;ratioP2;P2;SDS_P1;SDS_P2;PMS_P1;PMS_P2;Temp;Humidity;BMP_temperature;BMP_pressure;BME280_temperature;BME280_humidity;BME280_pressure;Samples;Min_cycle;Max_cycle;Signal;HPM_P1;HPM_P2
2023/04/13 05:52:22;;;;;;;2.85;0.63;;;;;;;;;;10563003;27;20406;-85
2023/04/13 05:57:23;;;;;;;1.15;0.50;;;;;;;;;;10547010;28;20008;-84
2023/04/13 06:02:25;;;;;;;1.10;0.50;;;;;;;;;;10545890;28;20043;-85
2023/04/13 06:07:26;;;;;;;4.20;1.67;;;;;;;;;;10546015;28;20028;-84
2023/04/13 06:12:28;;;;;;;2.67;1.10;;;;;;;;;;10547528;28;20024;-85
2023/04/13 06:17:30;;;;;;;2.05;0.90;;;;;;;;;;10545451;28;20020;-84
2023/04/13 06:22:31;;;;;;;;;;;;;;;;;;10546779;28;20020;-85
2023/04/13 06:27:32;;;;;;;2.30;1.08;;;;;;;;;;10546856;28;20358;-84
2023/04/13 06:32:33;;;;;;;2.35;0.88;;;;;;;;;;10544460;28;20397;-84
2023/04/13 06:37:35;;;;;;;1.67;1.20;;;;;;;;;;10547068;28;20035;-85
2023/04/13 06:42:36;;;;;;;3.08;1.88;;;;;;;;;;10549077;28;20044;-85
2023/04/13 06:47:41;;;;;;;8.60;3.22;;;;;;;;;;10548288;28;20033;-84
2023/04/13 06:52:42;;;;;;;3.17;1.23;;;;;;;;;;10551394;28;20110;-85
2023/04/13 06:57:44;;;;;;;2.72;1.05;;;;;;;;;;10554082;28;20028;-84
2023/04/13 07:02:45;;;;;;;3.80;1.27;;;;;;;;;;10520952;28;20375;-83
2023/04/13 07:07:46;;;;;;;7.60;5.38;;;;;;;;;;10523416;28;20092;-84
2023/04/13 07:12:47;;;;;;;4.50;2.47;;;;;;;;;;10515494;28;20028;-85
2023/04/13 07:17:48;;;;;;;5.10;3.30;;;;;;;;;;10512022;28;20071;-85
2023/04/13 07:22:49;;;;;;;9.57;6.30;;;;;;;;;;10520015;28;20521;-84
2023/04/13 07:27:50;;;;;;;;;;;;;;;;;;10528083;28;20080;-83
2023/04/13 07:32:51;;;;;;;7.53;4.85;;;;;;;;;;10526675;28;20015;-83
2023/04/13 07:37:52;;;;;;;8.50;5.75;;;;;;;;;;10526258;28;20033;-84
2023/04/13 07:42:56;;;;;;;9.52;7.20;;;;;;;;;;10544823;28;20029;-84
2023/04/13 07:47:57;;;;;;;8.55;5.75;;;;;;;;;;10532706;28;20036;-85
2023/04/13 07:52:58;;;;;;;8.02;3.88;;;;;;;;;;10519177;28;20059;-84
2023/04/13 07:57:59;;;;;;;6.15;3.53;;;;;;;;;;10518486;28;20123;-85
2023/04/13 08:03:00;;;;;;;4.65;3.20;;;;;;;;;;10517578;28;20039;-84
2023/04/13 08:08:03;;;;;;;6.82;4.10;;;;;;;;;;10511359;28;20028;-84
2023/04/13 08:13:04;;;;;;;4.35;1.55;;;;;;;;;;10514535;28;20060;-83
2023/04/13 08:18:05;;;;;;;2.58;1.70;;;;;;;;;;10521726;28;20052;-82
2023/04/13 08:23:06;;;;;;;3.72;2.00;;;;;;;;;;10509602;28;20027;-84
2023/04/13 08:28:08;;;;;;;4.85;2.15;;;;;;;;;;10507002;28;20028;-84
2023/04/13 08:33:09;;;;;;;3.83;2.50;;;;;;;;;;10510305;28;20044;-84
2023/04/13 08:38:10;;;;;;;;;;;;;;;;;;10506394;28;20474;-84
2023/04/13 08:43:12;;;;;;;3.92;2.10;;;;;;;;;;10506158;28;19911;-84
2023/04/13 08:48:14;;;;;;;3.20;1.95;;;;;;;;;;10504388;28;20036;-84
2023/04/13 08:53:17;;;;;;;3.88;2.00;;;;;;;;;;10505678;28;20024;-83
2023/04/13 08:58:19;;;;;;;3.53;1.42;;;;;;;;;;10505371;28;20055;-83
2023/04/13 09:03:23;;;;;;;6.15;1.98;;;;;;;;;;10508114;28;20154;-84
2023/04/13 09:08:24;;;;;;;6.05;1.65;;;;;;;;;;10504524;28;20394;-82
2023/04/13 09:13:36;;;;;;;3.25;1.50;;;;;;;;;;10506262;28;20035;-84
2023/04/13 09:18:47;;;;;;;4.75;2.30;;;;;;;;;;10513919;28;20060;-84
2023/04/13 09:24:00;;;;;;;2.70;1.70;;;;;;;;;;10514917;28;20056;-83
2023/04/13 09:29:06;;;;;;;4.35;1.80;;;;;;;;;;10515984;28;20040;-83
2023/04/13 09:34:07;;;;;;;5.63;2.13;;;;;;;;;;10512198;28;20324;-82
2023/04/13 09:39:08;;;;;;;5.93;2.00;;;;;;;;;;10522751;28;20047;-83
2023/04/13 09:44:10;;;;;;;;;;;;;;;;;;10528956;28;20029;-84
2023/04/13 09:49:11;;;;;;;6.13;3.42;;;;;;;;;;10513962;28;20029;-83
2023/04/13 09:54:12;;;;;;;;;;;;;;;;;;10513087;28;20130;-83
2023/04/13 09:59:16;;;;;;;6.63;2.20;;;;;;;;;;10516316;28;19908;-83
2023/04/13 10:04:18;;;;;;;3.28;1.75;;;;;;;;;;10516808;28;20078;-84
2023/04/13 10:09:25;;;;;;;4.50;1.90;;;;;;;;;;10517374;28;20044;-83
2023/04/13 10:14:28;;;;;;;3.88;2.00;;;;;;;;;;10519559;28;20024;-84
2023/04/13 10:19:30;;;;;;;4.50;2.05;;;;;;;;;;10501552;28;20060;-84
2023/04/13 10:24:31;;;;;;;3.90;1.63;;;;;;;;;;10518492;28;20040;-84
2023/04/13 10:29:34;;;;;;;;;;;;;;;;;;10524660;28;20033;-84
2023/04/13 10:34:37;;;;;;;3.80;1.88;;;;;;;;;;10528215;28;19915;-83
2023/04/13 10:39:45;;;;;;;3.95;1.50;;;;;;;;;;10539591;28;20555;-84
2023/04/13 10:44:50;;;;;;;4.22;2.00;;;;;;;;;;10536241;28;20105;-84
2023/04/13 10:49:51;;;;;;;14.73;9.90;;;;;;;;;;10528136;28;20029;-84
2023/04/13 10:54:52;;;;;;;;;;;;;;;;;;10525696;28;20056;-85
2023/04/13 10:59:56;;;;;;;3.83;1.70;;;;;;;;;;10524539;28;20010;-84
2023/04/13 11:04:58;;;;;;;6.38;2.40;;;;;;;;;;10522627;28;20067;-84
2023/04/13 11:10:00;;;;;;;5.47;1.98;;;;;;;;;;10520359;28;20036;-84
2023/04/13 11:15:01;;;;;;;5.75;2.13;;;;;;;;;;10520657;28;20516;-83
2023/04/13 11:20:05;;;;;;;;;;;;;;;;;;10522497;28;20067;-84
2023/04/13 11:25:10;;;;;;;5.03;1.90;;;;;;;;;;10518302;28;19911;-84
2023/04/13 11:30:11;;;;;;;3.83;1.85;;;;;;;;;;10518250;28;20100;-83
2023/04/13 11:35:13;;;;;;;3.72;1.75;;;;;;;;;;10517961;28;20058;-84
2023/04/13 11:40:21;;;;;;;4.50;1.50;;;;;;;;;;10516811;28;20059;-82
2023/04/13 11:45:24;;;;;;;4.25;1.80;;;;;;;;;;10521261;28;20021;-83
2023/04/13 11:50:25;;;;;;;4.65;1.60;;;;;;;;;;10538741;28;20090;-82
2023/04/13 11:55:27;;;;;;;4.15;1.58;;;;;;;;;;10546467;28;20024;-82
2023/04/13 12:00:28;;;;;;;4.50;1.58;;;;;;;;;;10502975;23;20047;-85
2023/04/13 12:05:30;;;;;;;5.18;1.98;;;;;;;;;;10476437;28;20025;-85
2023/04/13 12:10:35;;;;;;;6.88;1.77;;;;;;;;;;10476564;28;20052;-85
2023/04/13 12:15:38;;;;;;;2.88;1.60;;;;;;;;;;10475097;28;20025;-85
2023/04/13 12:20:42;;;;;;;5.00;1.58;;;;;;;;;;10477684;28;20128;-85
2023/04/13 12:26:01;;;;;;;4.50;2.33;;;;;;;;;;10475562;28;20041;-85
2023/04/13 12:31:03;;;;;;;4.88;2.22;;;;;;;;;;10472669;28;20482;-83
2023/04/13 12:36:10;;;;;;;5.78;2.97;;;;;;;;;;10473681;28;20021;-82
2023/04/13 12:41:11;;;;;;;4.50;1.73;;;;;;;;;;10474120;28;20017;-83
2023/04/13 12:46:12;;;;;;;3.58;1.52;;;;;;;;;;10469986;28;20104;-83
2023/04/13 12:51:13;;;;;;;;;;;;;;;;;;10471282;28;20474;-83
2023/04/13 12:56:14;;;;;;;7.03;3.47;;;;;;;;;;10471988;28;19904;-83
2023/04/13 13:01:16;;;;;;;11.75;2.30;;;;;;;;;;10472920;28;20033;-83
2023/04/13 13:06:17;;;;;;;4.22;2.20;;;;;;;;;;10469906;28;20040;-82
2023/04/13 13:11:18;;;;;;;6.80;2.38;;;;;;;;;;10472928;28;20066;-83
2023/04/13 13:16:19;;;;;;;4.80;1.95;;;;;;;;;;10466213;28;20451;-84
2023/04/13 13:21:20;;;;;;;;;;;;;;;;;;10461790;28;20021;-84
2023/04/13 13:26:21;;;;;;;;;;;;;;;;;;10461974;28;20371;-84
2023/04/13 13:31:56;;;;;;;4.00;2.15;;;;;;;;;;10470318;28;19949;-84
2023/04/13 13:37:02;;;;;;;5.50;1.73;;;;;;;;;;10463400;28;20063;-84
2023/04/13 13:42:06;;;;;;;4.90;2.50;;;;;;;;;;10463980;28;20036;-85
2023/04/13 13:47:07;;;;;;;3.15;1.88;;;;;;;;;;10464163;28;20593;-84
2023/04/13 13:52:09;;;;;;;3.47;1.75;;;;;;;;;;10467925;28;20052;-83
2023/04/13 13:57:10;;;;;;;;;;;;;;;;;;10473537;28;20108;-83
2023/04/13 14:02:11;;;;;;;5.57;1.90;;;;;;;;;;10465432;28;20388;-83
2023/04/13 14:07:12;;;;;;;;;;;;;;;;;;10472096;28;20176;-84
2023/04/13 14:12:17;;;;;;;4.82;1.80;;;;;;;;;;10472088;28;19912;-85
2023/04/13 14:17:18;;;;;;;5.78;1.88;;;;;;;;;;10474699;28;20124;-85
2023/04/13 14:22:20;;;;;;;3.42;1.73;;;;;;;;;;10473587;28;20132;-83
2023/04/13 14:27:21;;;;;;;5.00;1.90;;;;;;;;;;10473947;28;20024;-84
2023/04/13 14:32:22;;;;;;;5.03;2.00;;;;;;;;;;10479338;28;20473;-85
2023/04/13 14:37:23;;;;;;;4.65;1.80;;;;;;;;;;10471102;28;20043;-84
2023/04/13 14:42:28;;;;;;;4.65;1.92;;;;;;;;;;10472504;28;20102;-83
2023/04/13 14:47:29;;;;;;;6.18;1.60;;;;;;;;;;10471609;28;20049;-85
2023/04/13 14:52:31;;;;;;;3.70;1.40;;;;;;;;;;10470544;28;20090;-85
2023/04/13 14:57:32;;;;;;;3.47;1.75;;;;;;;;;;10472181;28;20667;-85
2023/04/13 15:02:36;;;;;;;4.80;2.00;;;;;;;;;;10459589;28;20053;-86
2023/04/13 15:07:37;;;;;;;7.00;1.80;;;;;;;;;;10477239;28;20095;-85
2023/04/13 15:12:39;;;;;;;4.93;2.17;;;;;;;;;;10474742;28;20025;-85
2023/04/13 15:17:41;;;;;;;6.22;3.00;;;;;;;;;;10481301;28;20025;-83
2023/04/13 15:22:42;;;;;;;4.10;1.95;;;;;;;;;;10491562;28;20406;-84
2023/04/13 15:27:43;;;;;;;3.45;2.10;;;;;;;;;;10474067;28;20348;-85
2023/04/13 15:32:45;;;;;;;6.85;3.28;;;;;;;;;;10469773;28;20025;-86
2023/04/13 15:37:46;;;;;;;6.47;2.40;;;;;;;;;;10470873;28;20048;-85
2023/04/13 15:42:47;;;;;;;4.05;1.75;;;;;;;;;;10469248;28;20579;-84
2023/04/13 15:47:48;;;;;;;4.85;1.92;;;;;;;;;;10473055;28;20027;-84
2023/04/13 15:52:49;;;;;;;4.85;3.00;;;;;;;;;;10469660;28;20056;-84
2023/04/13 15:57:52;;;;;;;4.55;2.00;;;;;;;;;;10470401;28;20032;-85
2023/04/13 16:02:53;;;;;;;3.97;2.00;;;;;;;;;;10468939;28;20044;-85
2023/04/13 16:07:54;;;;;;;3.42;1.67;;;;;;;;;;10469445;28;20066;-85
2023/04/13 16:12:55;;;;;;;5.30;2.00;;;;;;;;;;10469006;28;20032;-85
2023/04/13 16:17:56;;;;;;;4.32;2.00;;;;;;;;;;10471568;28;20087;-85
2023/04/13 16:23:03;;;;;;;3.80;1.45;;;;;;;;;;10472115;28;20144;-85
2023/04/13 16:28:05;;;;;;;5.53;1.67;;;;;;;;;;10479222;28;20044;-85
2023/04/13 16:33:14;;;;;;;2.97;1.42;;;;;;;;;;10484313;28;20104;-84
2023/04/13 16:38:19;;;;;;;3.63;1.45;;;;;;;;;;10499756;28;20138;-85
2023/04/13 16:43:33;;;;;;;3.88;1.50;;;;;;;;;;10469656;28;20112;-85
2023/04/13 16:48:34;;;;;;;3.53;1.45;;;;;;;;;;10467825;28;20063;-85
2023/04/13 16:53:35;;;;;;;4.65;1.55;;;;;;;;;;10469969;28;20419;-85
2023/04/13 16:58:39;;;;;;;4.45;1.65;;;;;;;;;;10468787;28;20116;-86
2023/04/13 17:03:40;;;;;;;2.72;1.50;;;;;;;;;;10469575;28;20033;-86
2023/04/13 17:08:41;;;;;;;3.78;1.25;;;;;;;;;;10469560;28;20060;-86
2023/04/13 17:13:42;;;;;;;3.45;1.48;;;;;;;;;;10485018;28;20033;-86
2023/04/13 17:18:49;;;;;;;3.50;1.70;;;;;;;;;;10491321;28;20036;-85
2023/04/13 17:23:50;;;;;;;5.03;1.80;;;;;;;;;;10494245;28;20096;-86
2023/04/13 17:28:52;;;;;;;5.18;1.40;;;;;;;;;;10492535;28;20029;-86
2023/04/13 17:33:53;;;;;;;1.75;1.10;;;;;;;;;;10490897;28;20128;-86
2023/04/13 17:38:54;;;;;;;4.70;1.58;;;;;;;;;;10492926;28;20474;-86
2023/04/13 17:43:55;;;;;;;3.75;1.30;;;;;;;;;;10500867;28;20029;-85
2023/04/13 17:48:56;;;;;;;3.50;1.52;;;;;;;;;;10497628;28;20056;-86
2023/04/13 17:53:57;;;;;;;2.92;1.02;;;;;;;;;;10492320;28;20029;-85
2023/04/13 17:58:58;;;;;;;4.47;1.50;;;;;;;;;;10517688;22;20482;-81
2023/04/13 18:03:59;;;;;;;3.35;1.30;;;;;;;;;;10490700;28;20031;-81
2023/04/13 18:09:00;;;;;;;2.22;1.08;;;;;;;;;;10490660;28;20123;-81
2023/04/13 18:14:02;;;;;;;3.40;1.08;;;;;;;;;;10489749;28;20104;-82
2023/04/13 18:19:03;;;;;;;2.90;1.15;;;;;;;;;;10488634;28;20028;-82
2023/04/13 18:24:05;;;;;;;3.17;1.10;;;;;;;;;;10506994;28;20025;-82
2023/04/13 18:29:06;;;;;;;1.83;1.00;;;;;;;;;;10490045;28;20025;-82
2023/04/13 18:34:09;;;;;;;1.83;1.10;;;;;;;;;;10506414;28;20089;-82
2023/04/13 18:39:11;;;;;;;2.33;1.27;;;;;;;;;;10487748;28;20035;-82
2023/04/13 18:44:12;;;;;;;2.58;1.05;;;;;;;;;;10486849;28;20024;-82
2023/04/13 18:49:13;;;;;;;2.33;1.20;;;;;;;;;;10487781;28;20032;-82
2023/04/13 18:54:15;;;;;;;2.90;1.42;;;;;;;;;;10506360;28;20074;-82
2023/04/13 18:59:17;;;;;;;2.80;1.63;;;;;;;;;;10492705;28;20483;-81
2023/04/13 19:04:18;;;;;;;3.80;2.35;;;;;;;;;;10495089;28;20066;-81
2023/04/13 19:09:19;;;;;;;3.35;1.70;;;;;;;;;;10494801;28;20024;-81
2023/04/13 19:14:20;;;;;;;4.25;2.15;;;;;;;;;;10493700;28;20028;-81
